sensor_id;sensor_type;location;lat;lon;timestamp;P1;durP1;ratioP1;P2;durP2;ratioP2
21018;SDS011;10667;51.056;3.732;2023-03-01T00:02:00;8.10;;;6.55;;
21018;SDS011;10667;51.056;3.732;2023-03-01T00:04:26;9.93;;;7.03;;
21018;SDS011;10667;51.056;3.732;2023-03-01T00:06:52;11.52;;;7.00;;
21018;SDS011;10667;51.056;3.732;2023-03-01T00:09:18;11.13;;;6.85;;
21018;SDS011;10667;51.056;3.732;2023-03-01T00:11:44;9.18;;;7.63;;
21018;SDS011;10667;51.056;3.732;2023-03-01T00:14:11;9.43;;;7.80;;
21018;SDS011;10667;51.056;3.732;2023-03-01T00:16:39;9.68;;;7.20;;
21018;SDS011;10667;51.056;3.732;2023-03-01T00:19:09;10.20;;;7.80;;
21018;SDS011;10667;51.056;3.732;2023-03-01T00:21:40;8.98;;;7.57;;
21018;SDS011;10667;51.056;3.732;2023-03-01T00:24:07;10.50;;;7.93;;
21018;SDS011;10667;51.056;3.732;2023-03-01T00:26:33;9.98;;;7.97;;
21018;SDS011;10667;51.056;3.732;2023-03-01T00:28:59;9.70;;;7.57;;
21018;SDS011;10667;51.056;3.732;2023-03-01T00:31:26;14.85;;;7.45;;
21018;SDS011;10667;51.056;3.732;2023-03-01T00:33:54;12.55;;;8.63;;
21018;SDS011;10667;51.056;3.732;2023-03-01T00:36:22;12.10;;;7.70;;
21018;SDS011;10667;51.056;3.732;2023-03-01T00:38:49;11.63;;;7.75;;
21018;SDS011;10667;51.056;3.732;2023-03-01T00:41:15;10.45;;;7.78;;
21018;SDS011;10667;51.056;3.732;2023-03-01T00:43:43;13.40;;;8.02;;
21018;SDS011;10667;51.056;3.732;2023-03-01T00:46:10;12.90;;;8.02;;
21018;SDS011;10667;51.056;3.732;2023-03-01T00:48:38;14.18;;;9.30;;
21018;SDS011;10667;51.056;3.732;2023-03-01T00:51:05;11.43;;;8.57;;
21018;SDS011;10667;51.056;3.732;2023-03-01T00:53:31;11.55;;;8.63;;
21018;SDS011;10667;51.056;3.732;2023-03-01T00:55:57;12.88;;;9.07;;
21018;SDS011;10667;51.056;3.732;2023-03-01T00:58:23;17.55;;;10.20;;
21018;SDS011;10667;51.056;3.732;2023-03-01T01:00:49;15.77;;;9.65;;
21018;SDS011;10667;51.056;3.732;2023-03-01T01:03:15;12.35;;;9.00;;
21018;SDS011;10667;51.056;3.732;2023-03-01T01:05:41;12.85;;;9.63;;
21018;SDS011;10667;51.056;3.732;2023-03-01T01:08:06;13.23;;;9.95;;
21018;SDS011;10667;51.056;3.732;2023-03-01T01:10:33;11.80;;;9.02;;
21018;SDS011;10667;51.056;3.732;2023-03-01T01:13:00;17.45;;;9.93;;
21018;SDS011;10667;51.056;3.732;2023-03-01T01:15:26;15.15;;;10.15;;
21018;SDS011;10667;51.056;3.732;2023-03-01T01:17:52;15.20;;;9.77;;
21018;SDS011;10667;51.056;3.732;2023-03-01T01:20:18;17.95;;;10.10;;
21018;SDS011;10667;51.056;3.732;2023-03-01T01:22:43;13.20;;;9.43;;
21018;SDS011;10667;51.056;3.732;2023-03-01T01:25:09;12.88;;;10.40;;
21018;SDS011;10667;51.056;3.732;2023-03-01T01:27:35;18.10;;;9.63;;
21018;SDS011;10667;51.056;3.732;2023-03-01T01:30:02;12.98;;;9.63;;
21018;SDS011;10667;51.056;3.732;2023-03-01T01:32:29;20.55;;;10.10;;
21018;SDS011;10667;51.056;3.732;2023-03-01T01:34:54;15.05;;;10.00;;
21018;SDS011;10667;51.056;3.732;2023-03-01T01:37:20;14.68;;;10.35;;
21018;SDS011;10667;51.056;3.732;2023-03-01T01:39:46;12.40;;;9.85;;
21018;SDS011;10667;51.056;3.732;2023-03-01T01:42:15;14.30;;;10.10;;
21018;SDS011;10667;51.056;3.732;2023-03-01T01:44:44;14.20;;;10.02;;
21018;SDS011;10667;51.056;3.732;2023-03-01T01:47:13;20.48;;;9.70;;
21018;SDS011;10667;51.056;3.732;2023-03-01T01:52:37;15.38;;;10.23;;
21018;SDS011;10667;51.056;3.732;2023-03-01T01:55:04;14.77;;;10.63;;
21018;SDS011;10667;51.056;3.732;2023-03-01T02:02:40;18.30;;;11.57;;
21018;SDS011;10667;51.056;3.732;2023-03-01T02:05:12;15.90;;;11.63;;
21018;SDS011;10667;51.056;3.732;2023-03-01T02:07:45;16.45;;;11.60;;
21018;SDS011;10667;51.056;3.732;2023-03-01T02:10:13;16.25;;;11.32;;
21018;SDS011;10667;51.056;3.732;2023-03-01T02:12:38;21.08;;;11.80;;
21018;SDS011;10667;51.056;3.732;2023-03-01T02:15:05;16.98;;;11.50;;
21018;SDS011;10667;51.056;3.732;2023-03-01T02:17:31;17.00;;;12.40;;
21018;SDS011;10667;51.056;3.732;2023-03-01T02:22:36;15.88;;;12.60;;
21018;SDS011;10667;51.056;3.732;2023-03-01T02:25:07;14.55;;;11.68;;
21018;SDS011;10667;51.056;3.732;2023-03-01T02:27:52;18.73;;;12.60;;
21018;SDS011;10667;51.056;3.732;2023-03-01T02:30:22;16.38;;;12.27;;
21018;SDS011;10667;51.056;3.732;2023-03-01T02:32:49;16.58;;;11.50;;
21018;SDS011;10667;51.056;3.732;2023-03-01T02:35:17;17.02;;;12.13;;
21018;SDS011;10667;51.056;3.732;2023-03-01T02:37:43;18.13;;;12.60;;
21018;SDS011;10667;51.056;3.732;2023-03-01T02:40:14;16.73;;;12.32;;
21018;SDS011;10667;51.056;3.732;2023-03-01T02:42:46;15.60;;;12.43;;
21018;SDS011;10667;51.056;3.732;2023-03-01T02:45:16;17.08;;;12.20;;
21018;SDS011;10667;51.056;3.732;2023-03-01T02:47:41;22.20;;;13.48;;
21018;SDS011;10667;51.056;3.732;2023-03-01T02:53:32;21.48;;;11.82;;
21018;SDS011;10667;51.056;3.732;2023-03-01T02:56:18;16.67;;;12.85;;
21018;SDS011;10667;51.056;3.732;2023-03-01T02:58:44;17.38;;;13.07;;
21018;SDS011;10667;51.056;3.732;2023-03-01T03:01:13;16.30;;;12.82;;
21018;SDS011;10667;51.056;3.732;2023-03-01T03:03:40;18.92;;;12.15;;
21018;SDS011;10667;51.056;3.732;2023-03-01T03:06:06;17.17;;;12.27;;
21018;SDS011;10667;51.056;3.732;2023-03-01T03:08:32;17.52;;;13.50;;
21018;SDS011;10667;51.056;3.732;2023-03-01T03:10:57;21.05;;;12.90;;
21018;SDS011;10667;51.056;3.732;2023-03-01T03:13:23;18.92;;;13.50;;
21018;SDS011;10667;51.056;3.732;2023-03-01T03:15:53;17.38;;;12.80;;
21018;SDS011;10667;51.056;3.732;2023-03-01T03:18:20;17.48;;;12.95;;
21018;SDS011;10667;51.056;3.732;2023-03-01T03:20:47;21.08;;;13.18;;
21018;SDS011;10667;51.056;3.732;2023-03-01T03:23:17;17.58;;;12.63;;
21018;SDS011;10667;51.056;3.732;2023-03-01T03:25:43;19.02;;;13.32;;
21018;SDS011;10667;51.056;3.732;2023-03-01T03:28:09;21.70;;;13.95;;
21018;SDS011;10667;51.056;3.732;2023-03-01T03:30:36;24.60;;;15.35;;
21018;SDS011;10667;51.056;3.732;2023-03-01T03:33:04;21.40;;;14.68;;
21018;SDS011;10667;51.056;3.732;2023-03-01T03:35:34;21.92;;;14.60;;
21018;SDS011;10667;51.056;3.732;2023-03-01T03:38:05;23.02;;;14.95;;
21018;SDS011;10667;51.056;3.732;2023-03-01T03:43:12;21.08;;;14.77;;
21018;SDS011;10667;51.056;3.732;2023-03-01T03:45:39;21.73;;;13.38;;
21018;SDS011;10667;51.056;3.732;2023-03-01T03:48:06;20.88;;;12.95;;
21018;SDS011;10667;51.056;3.732;2023-03-01T03:50:34;18.05;;;13.45;;
21018;SDS011;10667;51.056;3.732;2023-03-01T03:53:01;20.00;;;13.15;;
21018;SDS011;10667;51.056;3.732;2023-03-01T03:55:28;18.60;;;13.30;;
21018;SDS011;10667;51.056;3.732;2023-03-01T03:57:56;20.60;;;13.43;;
21018;SDS011;10667;51.056;3.732;2023-03-01T04:00:27;19.63;;;13.93;;
21018;SDS011;10667;51.056;3.732;2023-03-01T04:02:53;21.15;;;13.20;;
21018;SDS011;10667;51.056;3.732;2023-03-01T04:05:22;22.25;;;14.25;;
21018;SDS011;10667;51.056;3.732;2023-03-01T04:07:48;22.80;;;14.50;;
21018;SDS011;10667;51.056;3.732;2023-03-01T04:10:17;19.80;;;14.68;;
21018;SDS011;10667;51.056;3.732;2023-03-01T04:12:43;21.70;;;13.70;;
21018;SDS011;10667;51.056;3.732;2023-03-01T04:15:09;23.05;;;15.55;;
21018;SDS011;10667;51.056;3.732;2023-03-01T04:17:43;21.27;;;14.75;;
21018;SDS011;10667;51.056;3.732;2023-03-01T04:20:11;20.92;;;14.10;;
21018;SDS011;10667;51.056;3.732;2023-03-01T04:22:42;23.25;;;14.05;;
21018;SDS011;10667;51.056;3.732;2023-03-01T04:25:11;27.08;;;16.55;;
21018;SDS011;10667;51.056;3.732;2023-03-01T04:27:39;22.88;;;15.85;;
21018;SDS011;10667;51.056;3.732;2023-03-01T04:30:06;22.83;;;14.30;;
21018;SDS011;10667;51.056;3.732;2023-03-01T04:32:32;25.50;;;16.85;;
21018;SDS011;10667;51.056;3.732;2023-03-01T04:34:58;28.83;;;16.55;;
21018;SDS011;10667;51.056;3.732;2023-03-01T04:37:24;26.10;;;16.60;;
21018;SDS011;10667;51.056;3.732;2023-03-01T04:39:50;28.17;;;17.75;;
21018;SDS011;10667;51.056;3.732;2023-03-01T04:42:17;28.60;;;17.10;;
21018;SDS011;10667;51.056;3.732;2023-03-01T04:44:43;32.40;;;17.90;;
21018;SDS011;10667;51.056;3.732;2023-03-01T04:47:09;32.47;;;18.55;;
21018;SDS011;10667;51.056;3.732;2023-03-01T04:49:35;32.05;;;19.52;;
21018;SDS011;10667;51.056;3.732;2023-03-01T04:52:01;26.95;;;17.20;;
21018;SDS011;10667;51.056;3.732;2023-03-01T04:54:28;25.48;;;17.77;;
21018;SDS011;10667;51.056;3.732;2023-03-01T04:56:55;27.20;;;17.60;;
21018;SDS011;10667;51.056;3.732;2023-03-01T04:59:21;29.63;;;17.42;;
21018;SDS011;10667;51.056;3.732;2023-03-01T05:01:48;27.08;;;17.92;;
21018;SDS011;10667;51.056;3.732;2023-03-01T05:04:14;27.75;;;17.40;;
21018;SDS011;10667;51.056;3.732;2023-03-01T05:06:39;26.40;;;16.70;;
21018;SDS011;10667;51.056;3.732;2023-03-01T05:09:05;31.48;;;17.75;;
21018;SDS011;10667;51.056;3.732;2023-03-01T05:11:31;27.15;;;16.48;;
21018;SDS011;10667;51.056;3.732;2023-03-01T05:14:01;32.58;;;19.15;;
21018;SDS011;10667;51.056;3.732;2023-03-01T05:16:29;29.23;;;18.17;;
21018;SDS011;10667;51.056;3.732;2023-03-01T05:18:56;27.98;;;18.10;;
21018;SDS011;10667;51.056;3.732;2023-03-01T05:21:22;28.58;;;16.77;;
21018;SDS011;10667;51.056;3.732;2023-03-01T05:23:48;30.45;;;18.05;;
21018;SDS011;10667;51.056;3.732;2023-03-01T05:26:14;31.55;;;18.45;;
21018;SDS011;10667;51.056;3.732;2023-03-01T05:28:42;28.10;;;17.92;;
21018;SDS011;10667;51.056;3.732;2023-03-01T05:31:08;29.92;;;18.77;;
21018;SDS011;10667;51.056;3.732;2023-03-01T05:33:38;28.55;;;17.67;;
21018;SDS011;10667;51.056;3.732;2023-03-01T05:36:05;28.73;;;16.25;;
21018;SDS011;10667;51.056;3.732;2023-03-01T05:38:34;28.77;;;17.90;;
21018;SDS011;10667;51.056;3.732;2023-03-01T05:41:00;27.88;;;17.92;;
21018;SDS011;10667;51.056;3.732;2023-03-01T05:43:29;31.98;;;18.10;;
21018;SDS011;10667;51.056;3.732;2023-03-01T05:45:59;33.03;;;17.83;;
21018;SDS011;10667;51.056;3.732;2023-03-01T05:48:24;28.65;;;17.17;;
21018;SDS011;10667;51.056;3.732;2023-03-01T05:50:51;28.20;;;17.25;;
21018;SDS011;10667;51.056;3.732;2023-03-01T05:53:17;25.85;;;16.52;;
21018;SDS011;10667;51.056;3.732;2023-03-01T05:55:46;27.88;;;16.85;;
21018;SDS011;10667;51.056;3.732;2023-03-01T05:58:16;26.02;;;17.15;;
21018;SDS011;10667;51.056;3.732;2023-03-01T06:00:44;31.50;;;16.40;;
21018;SDS011;10667;51.056;3.732;2023-03-01T06:03:12;24.65;;;16.30;;
21018;SDS011;10667;51.056;3.732;2023-03-01T06:05:39;27.02;;;17.55;;
21018;SDS011;10667;51.056;3.732;2023-03-01T06:08:05;29.50;;;16.55;;
21018;SDS011;10667;51.056;3.732;2023-03-01T06:10:31;30.75;;;15.98;;
21018;SDS011;10667;51.056;3.732;2023-03-01T06:12:57;27.13;;;16.25;;
21018;SDS011;10667;51.056;3.732;2023-03-01T06:15:23;24.38;;;16.02;;
21018;SDS011;10667;51.056;3.732;2023-03-01T06:17:50;28.55;;;16.15;;
21018;SDS011;10667;51.056;3.732;2023-03-01T06:20:20;27.60;;;16.40;;
21018;SDS011;10667;51.056;3.732;2023-03-01T06:22:47;27.30;;;15.65;;
21018;SDS011;10667;51.056;3.732;2023-03-01T06:25:17;26.77;;;15.65;;
21018;SDS011;10667;51.056;3.732;2023-03-01T06:27:46;24.73;;;15.73;;
21018;SDS011;10667;51.056;3.732;2023-03-01T06:30:12;26.88;;;16.13;;
21018;SDS011;10667;51.056;3.732;2023-03-01T06:32:39;29.27;;;16.23;;
21018;SDS011;10667;51.056;3.732;2023-03-01T06:35:11;27.80;;;15.90;;
21018;SDS011;10667;51.056;3.732;2023-03-01T06:37:39;25.60;;;15.50;;
21018;SDS011;10667;51.056;3.732;2023-03-01T06:40:06;23.42;;;14.68;;
21018;SDS011;10667;51.056;3.732;2023-03-01T06:42:35;28.20;;;16.55;;
21018;SDS011;10667;51.056;3.732;2023-03-01T06:45:02;31.50;;;16.13;;
21018;SDS011;10667;51.056;3.732;2023-03-01T06:47:29;27.45;;;16.00;;
21018;SDS011;10667;51.056;3.732;2023-03-01T06:49:54;27.50;;;15.52;;
21018;SDS011;10667;51.056;3.732;2023-03-01T06:52:20;24.05;;;15.57;;
21018;SDS011;10667;51.056;3.732;2023-03-01T06:54:46;27.80;;;16.95;;
21018;SDS011;10667;51.056;3.732;2023-03-01T06:57:11;24.15;;;16.17;;
21018;SDS011;10667;51.056;3.732;2023-03-01T06:59:37;28.88;;;16.77;;
21018;SDS011;10667;51.056;3.732;2023-03-01T07:02:03;25.05;;;15.23;;
21018;SDS011;10667;51.056;3.732;2023-03-01T07:04:28;26.13;;;15.40;;
21018;SDS011;10667;51.056;3.732;2023-03-01T07:06:55;24.10;;;15.75;;
21018;SDS011;10667;51.056;3.732;2023-03-01T07:09:22;24.73;;;15.13;;
21018;SDS011;10667;51.056;3.732;2023-03-01T07:11:48;24.15;;;14.80;;
21018;SDS011;10667;51.056;3.732;2023-03-01T07:14:14;29.10;;;14.85;;
21018;SDS011;10667;51.056;3.732;2023-03-01T07:16:40;30.33;;;14.93;;
21018;SDS011;10667;51.056;3.732;2023-03-01T07:19:05;22.77;;;14.73;;
21018;SDS011;10667;51.056;3.732;2023-03-01T07:21:31;19.80;;;13.63;;
21018;SDS011;10667;51.056;3.732;2023-03-01T07:23:57;22.00;;;14.18;;
21018;SDS011;10667;51.056;3.732;2023-03-01T07:26:22;24.77;;;15.23;;
21018;SDS011;10667;51.056;3.732;2023-03-01T07:28:48;23.88;;;15.32;;
21018;SDS011;10667;51.056;3.732;2023-03-01T07:31:14;23.50;;;14.02;;
21018;SDS011;10667;51.056;3.732;2023-03-01T07:33:39;21.10;;;14.23;;
21018;SDS011;10667;51.056;3.732;2023-03-01T07:36:05;21.67;;;14.13;;
21018;SDS011;10667;51.056;3.732;2023-03-01T07:38:31;25.13;;;14.48;;
21018;SDS011;10667;51.056;3.732;2023-03-01T07:40:58;22.17;;;13.88;;
21018;SDS011;10667;51.056;3.732;2023-03-01T07:43:25;22.08;;;14.63;;
21018;SDS011;10667;51.056;3.732;2023-03-01T07:45:51;24.95;;;14.50;;
21018;SDS011;10667;51.056;3.732;2023-03-01T07:48:17;18.23;;;12.43;;
21018;SDS011;10667;51.056;3.732;2023-03-01T07:50:43;19.08;;;12.70;;
21018;SDS011;10667;51.056;3.732;2023-03-01T07:53:09;22.02;;;13.35;;
21018;SDS011;10667;51.056;3.732;2023-03-01T07:55:35;17.75;;;12.70;;
21018;SDS011;10667;51.056;3.732;2023-03-01T07:58:02;18.35;;;12.13;;
21018;SDS011;10667;51.056;3.732;2023-03-01T08:00:27;19.73;;;12.60;;
21018;SDS011;10667;51.056;3.732;2023-03-01T08:02:53;29.48;;;12.95;;
21018;SDS011;10667;51.056;3.732;2023-03-01T08:05:19;23.98;;;13.57;;
21018;SDS011;10667;51.056;3.732;2023-03-01T08:07:47;21.55;;;13.32;;
21018;SDS011;10667;51.056;3.732;2023-03-01T08:10:12;21.10;;;12.77;;
21018;SDS011;10667;51.056;3.732;2023-03-01T08:12:38;19.35;;;11.90;;
21018;SDS011;10667;51.056;3.732;2023-03-01T08:15:04;18.80;;;12.25;;
21018;SDS011;10667;51.056;3.732;2023-03-01T08:17:30;23.48;;;12.30;;
21018;SDS011;10667;51.056;3.732;2023-03-01T08:19:56;16.80;;;11.77;;
21018;SDS011;10667;51.056;3.732;2023-03-01T08:22:21;21.13;;;11.98;;
21018;SDS011;10667;51.056;3.732;2023-03-01T08:24:47;19.15;;;11.60;;
21018;SDS011;10667;51.056;3.732;2023-03-01T08:27:14;27.10;;;12.07;;
21018;SDS011;10667;51.056;3.732;2023-03-01T08:29:40;20.17;;;11.48;;
21018;SDS011;10667;51.056;3.732;2023-03-01T08:32:06;15.00;;;11.27;;
21018;SDS011;10667;51.056;3.732;2023-03-01T08:34:32;15.77;;;10.82;;
21018;SDS011;10667;51.056;3.732;2023-03-01T08:37:00;16.33;;;11.52;;
21018;SDS011;10667;51.056;3.732;2023-03-01T08:39:26;19.30;;;11.65;;
21018;SDS011;10667;51.056;3.732;2023-03-01T08:41:52;19.10;;;11.07;;
21018;SDS011;10667;51.056;3.732;2023-03-01T08:44:18;21.15;;;11.55;;
21018;SDS011;10667;51.056;3.732;2023-03-01T08:46:46;27.80;;;11.57;;
21018;SDS011;10667;51.056;3.732;2023-03-01T08:49:16;18.25;;;11.48;;
21018;SDS011;10667;51.056;3.732;2023-03-01T08:51:43;20.73;;;11.52;;
21018;SDS011;10667;51.056;3.732;2023-03-01T08:54:11;27.88;;;11.90;;
21018;SDS011;10667;51.056;3.732;2023-03-01T08:56:39;18.02;;;10.88;;
21018;SDS011;10667;51.056;3.732;2023-03-01T08:59:05;17.30;;;11.25;;
21018;SDS011;10667;51.056;3.732;2023-03-01T09:01:31;28.02;;;12.32;;
21018;SDS011;10667;51.056;3.732;2023-03-01T09:03:57;22.88;;;12.27;;
21018;SDS011;10667;51.056;3.732;2023-03-01T09:06:23;25.25;;;13.45;;
21018;SDS011;10667;51.056;3.732;2023-03-01T09:08:49;27.05;;;14.30;;
21018;SDS011;10667;51.056;3.732;2023-03-01T09:11:17;18.70;;;11.70;;
21018;SDS011;10667;51.056;3.732;2023-03-01T09:13:45;21.75;;;12.07;;
21018;SDS011;10667;51.056;3.732;2023-03-01T09:16:12;18.88;;;12.93;;
21018;SDS011;10667;51.056;3.732;2023-03-01T09:18:39;21.95;;;13.43;;
21018;SDS011;10667;51.056;3.732;2023-03-01T09:23:39;17.05;;;10.40;;
21018;SDS011;10667;51.056;3.732;2023-03-01T09:26:07;20.48;;;13.00;;
21018;SDS011;10667;51.056;3.732;2023-03-01T09:28:34;17.65;;;11.95;;
21018;SDS011;10667;51.056;3.732;2023-03-01T09:31:01;17.45;;;11.27;;
21018;SDS011;10667;51.056;3.732;2023-03-01T09:33:28;21.38;;;11.55;;
21018;SDS011;10667;51.056;3.732;2023-03-01T09:35:56;15.70;;;10.95;;
21018;SDS011;10667;51.056;3.732;2023-03-01T09:38:26;17.90;;;12.18;;
21018;SDS011;10667;51.056;3.732;2023-03-01T09:40:52;17.30;;;11.05;;
21018;SDS011;10667;51.056;3.732;2023-03-01T09:43:20;19.92;;;11.88;;
21018;SDS011;10667;51.056;3.732;2023-03-01T09:45:54;17.45;;;10.88;;
21018;SDS011;10667;51.056;3.732;2023-03-01T09:48:24;15.13;;;10.50;;
21018;SDS011;10667;51.056;3.732;2023-03-01T09:50:51;22.30;;;11.38;;
21018;SDS011;10667;51.056;3.732;2023-03-01T09:53:21;20.17;;;11.23;;
21018;SDS011;10667;51.056;3.732;2023-03-01T09:55:59;14.43;;;10.93;;
21018;SDS011;10667;51.056;3.732;2023-03-01T10:01:35;17.65;;;10.77;;
21018;SDS011;10667;51.056;3.732;2023-03-01T10:09:32;18.63;;;11.20;;
21018;SDS011;10667;51.056;3.732;2023-03-01T10:11:59;14.07;;;10.25;;
21018;SDS011;10667;51.056;3.732;2023-03-01T10:14:48;22.90;;;14.25;;
21018;SDS011;10667;51.056;3.732;2023-03-01T10:22:49;15.05;;;9.55;;
21018;SDS011;10667;51.056;3.732;2023-03-01T10:28:03;14.13;;;9.85;;
21018;SDS011;10667;51.056;3.732;2023-03-01T10:30:35;15.48;;;10.20;;
21018;SDS011;10667;51.056;3.732;2023-03-01T10:33:08;16.80;;;10.70;;
21018;SDS011;10667;51.056;3.732;2023-03-01T10:35:42;16.23;;;10.18;;
21018;SDS011;10667;51.056;3.732;2023-03-01T10:38:08;19.92;;;11.82;;
21018;SDS011;10667;51.056;3.732;2023-03-01T10:40:36;25.45;;;13.23;;
21018;SDS011;10667;51.056;3.732;2023-03-01T10:43:14;21.92;;;12.48;;
21018;SDS011;10667;51.056;3.732;2023-03-01T10:45:40;34.28;;;13.85;;
21018;SDS011;10667;51.056;3.732;2023-03-01T10:48:17;17.38;;;10.35;;
21018;SDS011;10667;51.056;3.732;2023-03-01T10:50:50;13.18;;;8.93;;
21018;SDS011;10667;51.056;3.732;2023-03-01T10:53:57;19.02;;;9.73;;
21018;SDS011;10667;51.056;3.732;2023-03-01T10:56:22;10.88;;;8.48;;
21018;SDS011;10667;51.056;3.732;2023-03-01T10:58:59;20.70;;;10.48;;
21018;SDS011;10667;51.056;3.732;2023-03-01T11:01:33;15.27;;;8.60;;
21018;SDS011;10667;51.056;3.732;2023-03-01T11:04:09;12.60;;;9.20;;
21018;SDS011;10667;51.056;3.732;2023-03-01T11:06:38;13.38;;;9.85;;
21018;SDS011;10667;51.056;3.732;2023-03-01T11:11:43;14.73;;;9.80;;
21018;SDS011;10667;51.056;3.732;2023-03-01T11:14:16;19.25;;;10.00;;
21018;SDS011;10667;51.056;3.732;2023-03-01T11:16:45;13.43;;;8.90;;
21018;SDS011;10667;51.056;3.732;2023-03-01T11:19:15;13.60;;;8.60;;
21018;SDS011;10667;51.056;3.732;2023-03-01T11:21:49;14.57;;;9.98;;
21018;SDS011;10667;51.056;3.732;2023-03-01T11:27:18;15.52;;;9.07;;
21018;SDS011;10667;51.056;3.732;2023-03-01T11:29:45;14.10;;;9.98;;
21018;SDS011;10667;51.056;3.732;2023-03-01T11:32:40;11.90;;;9.35;;
21018;SDS011;10667;51.056;3.732;2023-03-01T11:35:18;16.95;;;10.57;;
21018;SDS011;10667;51.056;3.732;2023-03-01T11:38:02;16.52;;;8.52;;
21018;SDS011;10667;51.056;3.732;2023-03-01T11:57:11;15.38;;;7.63;;
21018;SDS011;10667;51.056;3.732;2023-03-01T12:19:24;12.90;;;9.00;;
21018;SDS011;10667;51.056;3.732;2023-03-01T12:22:09;14.98;;;9.88;;
21018;SDS011;10667;51.056;3.732;2023-03-01T12:38:32;15.50;;;8.50;;
21018;SDS011;10667;51.056;3.732;2023-03-01T12:46:58;12.32;;;7.65;;
21018;SDS011;10667;51.056;3.732;2023-03-01T12:49:49;10.05;;;7.65;;
21018;SDS011;10667;51.056;3.732;2023-03-01T12:55:16;13.98;;;7.78;;
21018;SDS011;10667;51.056;3.732;2023-03-01T12:57:53;13.10;;;7.22;;
21018;SDS011;10667;51.056;3.732;2023-03-01T13:08:43;17.52;;;7.38;;
21018;SDS011;10667;51.056;3.732;2023-03-01T13:11:22;12.45;;;7.47;;
21018;SDS011;10667;51.056;3.732;2023-03-01T13:13:49;13.52;;;8.23;;
21018;SDS011;10667;51.056;3.732;2023-03-01T13:19:13;9.52;;;7.65;;
21018;SDS011;10667;51.056;3.732;2023-03-01T13:21:45;12.18;;;7.32;;
21018;SDS011;10667;51.056;3.732;2023-03-01T13:32:22;9.88;;;7.43;;
21018;SDS011;10667;51.056;3.732;2023-03-01T13:34:53;15.10;;;8.18;;
21018;SDS011;10667;51.056;3.732;2023-03-01T13:37:20;18.00;;;8.68;;
21018;SDS011;10667;51.056;3.732;2023-03-01T13:39:47;11.82;;;8.52;;
21018;SDS011;10667;51.056;3.732;2023-03-01T13:45:02;10.82;;;8.25;;
21018;SDS011;10667;51.056;3.732;2023-03-01T13:47:54;13.40;;;8.30;;
21018;SDS011;10667;51.056;3.732;2023-03-01T13:50:33;15.73;;;8.65;;
21018;SDS011;10667;51.056;3.732;2023-03-01T13:53:10;13.15;;;7.85;;
21018;SDS011;10667;51.056;3.732;2023-03-01T13:55:42;18.83;;;9.15;;
21018;SDS011;10667;51.056;3.732;2023-03-01T14:01:00;15.98;;;9.77;;
21018;SDS011;10667;51.056;3.732;2023-03-01T14:03:32;14.25;;;8.50;;
21018;SDS011;10667;51.056;3.732;2023-03-01T14:06:06;13.48;;;8.30;;
21018;SDS011;10667;51.056;3.732;2023-03-01T14:08:40;20.08;;;8.15;;
21018;SDS011;10667;51.056;3.732;2023-03-01T14:11:19;15.55;;;8.85;;
21018;SDS011;10667;51.056;3.732;2023-03-01T14:21:27;20.63;;;9.55;;
21018;SDS011;10667;51.056;3.732;2023-03-01T14:23:52;13.68;;;9.00;;
21018;SDS011;10667;51.056;3.732;2023-03-01T14:26:22;17.00;;;8.65;;
21018;SDS011;10667;51.056;3.732;2023-03-01T14:28:48;15.20;;;9.25;;
21018;SDS011;10667;51.056;3.732;2023-03-01T14:34:01;12.32;;;8.43;;
21018;SDS011;10667;51.056;3.732;2023-03-01T14:36:28;13.68;;;8.52;;
21018;SDS011;10667;51.056;3.732;2023-03-01T14:38:55;10.30;;;7.63;;
21018;SDS011;10667;51.056;3.732;2023-03-01T14:41:29;14.05;;;8.60;;
21018;SDS011;10667;51.056;3.732;2023-03-01T14:44:06;18.90;;;8.57;;
21018;SDS011;10667;51.056;3.732;2023-03-01T14:49:06;13.25;;;7.50;;
21018;SDS011;10667;51.056;3.732;2023-03-01T14:51:50;11.70;;;7.93;;
21018;SDS011;10667;51.056;3.732;2023-03-01T14:57:00;11.07;;;8.05;;
21018;SDS011;10667;51.056;3.732;2023-03-01T14:59:26;15.75;;;8.40;;
21018;SDS011;10667;51.056;3.732;2023-03-01T15:01:53;20.25;;;8.40;;
21018;SDS011;10667;51.056;3.732;2023-03-01T15:04:21;16.88;;;8.85;;
21018;SDS011;10667;51.056;3.732;2023-03-01T15:06:52;12.90;;;8.95;;
21018;SDS011;10667;51.056;3.732;2023-03-01T15:09:20;16.02;;;8.23;;
21018;SDS011;10667;51.056;3.732;2023-03-01T15:11:47;17.15;;;8.20;;
21018;SDS011;10667;51.056;3.732;2023-03-01T15:17:15;12.98;;;8.27;;
21018;SDS011;10667;51.056;3.732;2023-03-01T15:19:47;14.70;;;8.98;;
21018;SDS011;10667;51.056;3.732;2023-03-01T15:22:17;15.38;;;8.98;;
21018;SDS011;10667;51.056;3.732;2023-03-01T15:24:51;19.92;;;10.82;;
21018;SDS011;10667;51.056;3.732;2023-03-01T15:27:18;12.80;;;9.25;;
21018;SDS011;10667;51.056;3.732;2023-03-01T15:29:48;13.32;;;8.13;;
21018;SDS011;10667;51.056;3.732;2023-03-01T15:32:30;12.35;;;7.68;;
21018;SDS011;10667;51.056;3.732;2023-03-01T15:34:58;13.25;;;8.57;;
21018;SDS011;10667;51.056;3.732;2023-03-01T15:40:23;14.93;;;9.30;;
21018;SDS011;10667;51.056;3.732;2023-03-01T15:43:00;18.02;;;8.95;;
21018;SDS011;10667;51.056;3.732;2023-03-01T15:45:30;15.55;;;8.93;;
21018;SDS011;10667;51.056;3.732;2023-03-01T15:48:13;12.07;;;8.35;;
21018;SDS011;10667;51.056;3.732;2023-03-01T15:50:42;14.90;;;9.45;;
21018;SDS011;10667;51.056;3.732;2023-03-01T15:53:12;13.20;;;8.73;;
21018;SDS011;10667;51.056;3.732;2023-03-01T15:55:41;22.95;;;9.02;;
21018;SDS011;10667;51.056;3.732;2023-03-01T15:58:12;12.07;;;8.77;;
21018;SDS011;10667;51.056;3.732;2023-03-01T16:00:41;11.18;;;8.48;;
21018;SDS011;10667;51.056;3.732;2023-03-01T16:03:08;11.93;;;8.60;;
21018;SDS011;10667;51.056;3.732;2023-03-01T16:05:36;13.38;;;9.40;;
21018;SDS011;10667;51.056;3.732;2023-03-01T16:08:02;14.68;;;9.75;;
21018;SDS011;10667;51.056;3.732;2023-03-01T16:10:30;15.35;;;9.00;;
21018;SDS011;10667;51.056;3.732;2023-03-01T16:12:57;14.73;;;9.38;;
21018;SDS011;10667;51.056;3.732;2023-03-01T16:15:27;14.45;;;10.10;;
21018;SDS011;10667;51.056;3.732;2023-03-01T16:17:54;15.98;;;9.73;;
21018;SDS011;10667;51.056;3.732;2023-03-01T16:20:20;15.00;;;10.23;;
21018;SDS011;10667;51.056;3.732;2023-03-01T16:22:46;12.25;;;9.32;;
21018;SDS011;10667;51.056;3.732;2023-03-01T16:25:13;13.63;;;9.98;;
21018;SDS011;10667;51.056;3.732;2023-03-01T16:27:43;14.88;;;10.43;;
21018;SDS011;10667;51.056;3.732;2023-03-01T16:30:11;17.63;;;11.75;;
21018;SDS011;10667;51.056;3.732;2023-03-01T16:32:38;15.52;;;10.27;;
21018;SDS011;10667;51.056;3.732;2023-03-01T16:35:05;13.57;;;9.98;;
21018;SDS011;10667;51.056;3.732;2023-03-01T16:37:32;15.40;;;10.75;;
21018;SDS011;10667;51.056;3.732;2023-03-01T16:39:59;14.30;;;10.15;;
21018;SDS011;10667;51.056;3.732;2023-03-01T16:42:25;16.35;;;10.68;;
21018;SDS011;10667;51.056;3.732;2023-03-01T16:44:54;17.75;;;10.27;;
21018;SDS011;10667;51.056;3.732;2023-03-01T16:47:20;14.60;;;10.30;;
21018;SDS011;10667;51.056;3.732;2023-03-01T16:49:46;16.67;;;10.55;;
21018;SDS011;10667;51.056;3.732;2023-03-01T16:52:12;22.73;;;11.43;;
21018;SDS011;10667;51.056;3.732;2023-03-01T16:54:38;17.75;;;10.98;;
21018;SDS011;10667;51.056;3.732;2023-03-01T16:57:04;16.33;;;10.88;;
21018;SDS011;10667;51.056;3.732;2023-03-01T16:59:29;16.40;;;11.15;;
21018;SDS011;10667;51.056;3.732;2023-03-01T17:01:55;20.13;;;12.43;;